METAR Data
IDs: Format: Raw Decoded Include TAF

Data at: 2056 UTC 08 Aug 2020

PANC 082053Z 04004KT 10SM FEW045 BKN075 OVC090 16/12 A2982 RMK AO2 RAE24 SLP097 P0001 60001 T01560117 51005

PANC 082006Z 0820/0924 VRB06KT P6SM BKN060
  FM090000 15012G20KT P6SM FEW035 BKN050
  FM090600 15007KT P6SM VCSH FEW035 BKN050
  FM091000 01007KT P6SM VCSH SCT035 OVC050
  FM092200 VRB03KT P6SM -RA OVC040